This is the latest recevied weather packets stored in our database for station/object ALANSN-2. If no packets are shown the sender has not sent any weather packets the latest 10 day(s).
| Time | Temp. | Humidity | Pressure | Rain* | Wind** | Luminosity | Snow |
|---|---|---|---|---|---|---|---|
| 1777665302 | 5.56° C | 62% | 1021.9 hPa | 0 mm | - | 281 W/m² | - |
| 1777663202 | 4.44° C | 74% | 1021.9 hPa | 0 mm | - | 190 W/m² | - |
| 1777662302 | 4.44° C | 78% | 1021.7 hPa | 0 mm | - | 155 W/m² | - |
| 1777654202 | 3.89° C | 76% | 1021.9 hPa | 0 mm | - | 199 W/m² | - |
| 1777652701 | 3.89° C | 73% | 1022.1 hPa | 0 mm | - | 268 W/m² | - |
| 1777649701 | 3.89° C | 71% | 1022.5 hPa | 0 mm | - | 178 W/m² | - |
| 1777649402 | 3.89° C | 69% | 1022.4 hPa | 0 mm | - | 215 W/m² | - |
| 1777649101 | 3.89° C | 72% | 1022.4 hPa | 0 mm | - | 230 W/m² | - |
| 1777648501 | 3.89° C | 70% | 1022.4 hPa | 0 mm | - | 188 W/m² | - |
| 1777648202 | 3.89° C | 72% | 1022.6 hPa | 0 mm | - | 166 W/m² | - |
| 1777647902 | 3.89° C | 74% | 1022.6 hPa | 0 mm | - | 160 W/m² | - |
| 1777647302 | 3.89° C | 71% | 1022.5 hPa | 0 mm | - | 151 W/m² | - |
| 1777646702 | 3.33° C | 72% | 1022.6 hPa | 0 mm | - | 210 W/m² | - |
| 1777646401 | 3.33° C | 76% | 1022.6 hPa | 0 mm | - | 212 W/m² | - |
| 1777645801 | 3.33° C | 77% | 1022.8 hPa | 0 mm | - | 205 W/m² | - |
| 1777645502 | 3.33° C | 77% | 1022.8 hPa | 0 mm | - | 197 W/m² | - |
| 1777645201 | 3.33° C | 78% | 1022.8 hPa | 0 mm | - | 181 W/m² | - |
| 1777642802 | 2.78° C | 82% | 1022.9 hPa | 0 mm | - | 147 W/m² | - |
| 1777642501 | 2.78° C | 82% | 1022.9 hPa | 0 mm | - | 139 W/m² | - |
| 1777638002 | 2.22° C | 86% | 1023.1 hPa | 0 mm | - | 80 W/m² | - |
| 1777637102 | 1.67° C | 87% | 1023 hPa | 0 mm | - | 118 W/m² | - |
| 1777635602 | 1.11° C | 90% | 1022.8 hPa | 0 mm | - | 40 W/m² | - |
| 1777635002 | 0.56° C | 93% | 1023.1 hPa | 0 mm | - | 35 W/m² | - |
| 1777634701 | 0.56° C | 94% | 1023 hPa | 0 mm | - | 35 W/m² | - |
| 1777634101 | 0° C | 95% | 1022.8 hPa | 0 mm | - | 29 W/m² | - |
* Rain latest hour (hover to see other rain measurements)
** Current wind speed in m/s (hover to see current wind gust speed)